createdAt,value
2022-09-17T00:02:14.288Z,14.20
2022-09-17T00:04:40.882Z,14.20
2022-09-17T00:07:07.507Z,14.20
2022-09-17T00:09:34.161Z,14.10
2022-09-17T00:12:00.911Z,14.10
2022-09-17T00:14:27.438Z,14.10
2022-09-17T00:16:54.331Z,14.00
2022-09-17T00:19:22.894Z,14.00
2022-09-17T00:21:49.662Z,14.10
2022-09-17T00:24:16.656Z,14.10
2022-09-17T00:26:43.256Z,14.00
2022-09-17T00:29:10.243Z,14.00
2022-09-17T00:31:36.859Z,14.00
2022-09-17T00:34:04.444Z,14.00
2022-09-17T00:36:31.763Z,14.00
2022-09-17T00:38:58.906Z,14.00
2022-09-17T00:41:26.644Z,14.10
2022-09-17T00:43:54.423Z,14.00
2022-09-17T00:46:24.104Z,14.00
2022-09-17T00:48:51.640Z,14.00
2022-09-17T00:51:20.339Z,14.00
2022-09-17T00:53:47.122Z,14.00
2022-09-17T00:56:16.006Z,13.90
2022-09-17T00:58:42.818Z,13.90
2022-09-17T01:01:09.405Z,13.90
2022-09-17T01:03:36.327Z,13.90
2022-09-17T01:06:11.369Z,13.80
2022-09-17T01:08:48.865Z,13.80
2022-09-17T01:11:15.766Z,13.80
2022-09-17T01:13:45.164Z,13.80
2022-09-17T01:16:20.451Z,13.80
2022-09-17T01:18:59.195Z,13.80
2022-09-17T01:21:38.500Z,13.70
2022-09-17T01:24:15.282Z,13.70
2022-09-17T01:27:00.411Z,13.70
2022-09-17T01:29:29.938Z,13.70
2022-09-17T01:31:59.398Z,13.70
2022-09-17T01:34:38.060Z,13.60
2022-09-17T01:37:23.099Z,13.60
2022-09-17T01:40:12.507Z,13.60
2022-09-17T01:42:41.882Z,13.60
2022-09-17T01:45:12.673Z,13.60
2022-09-17T01:47:42.015Z,13.60
2022-09-17T01:50:14.902Z,13.60
2022-09-17T01:52:43.305Z,13.60
2022-09-17T01:55:12.219Z,13.60
2022-09-17T01:57:42.407Z,13.60
2022-09-17T02:00:17.144Z,13.60
2022-09-17T02:03:05.943Z,13.70
2022-09-17T02:05:35.387Z,13.70
2022-09-17T02:08:08.347Z,13.70
2022-09-17T02:10:38.815Z,13.70
2022-09-17T02:13:10.628Z,13.80
2022-09-17T02:15:40.265Z,13.80
2022-09-17T02:18:08.251Z,13.80
2022-09-17T02:20:55.007Z,13.80
2022-09-17T02:23:26.725Z,13.80
2022-09-17T02:25:58.664Z,13.70
2022-09-17T02:28:48.562Z,13.70
2022-09-17T02:31:15.185Z,13.70
2022-09-17T02:33:43.807Z,13.70
2022-09-17T02:36:10.442Z,13.60
2022-09-17T02:38:39.256Z,13.60
2022-09-17T02:41:08.858Z,13.60
2022-09-17T02:43:57.056Z,13.60
2022-09-17T02:46:59.057Z,13.60
2022-09-17T02:49:31.542Z,13.50
2022-09-17T02:51:58.072Z,13.40
2022-09-17T02:54:29.535Z,13.40
2022-09-17T02:56:58.699Z,13.40
2022-09-17T02:59:29.411Z,13.30
2022-09-17T03:02:02.278Z,13.30
2022-09-17T03:04:29.649Z,13.20
2022-09-17T03:06:58.068Z,13.10
2022-09-17T03:09:24.784Z,13.10
2022-09-17T03:11:51.494Z,13.10
2022-09-17T03:14:20.621Z,13.00
2022-09-17T03:16:47.723Z,13.00
2022-09-17T03:19:14.326Z,13.00
2022-09-17T03:21:40.908Z,13.00
2022-09-17T03:24:08.168Z,13.00
2022-09-17T03:26:34.760Z,13.00
2022-09-17T03:29:01.637Z,13.00
2022-09-17T03:31:29.131Z,13.00
2022-09-17T03:33:55.896Z,13.00
2022-09-17T03:36:22.672Z,13.00
2022-09-17T03:38:49.250Z,13.00
2022-09-17T03:41:15.864Z,13.00
2022-09-17T03:43:42.422Z,13.00
2022-09-17T03:46:09.066Z,13.00
2022-09-17T03:48:37.129Z,13.00
2022-09-17T03:51:04.157Z,12.90
2022-09-17T03:53:31.716Z,12.90
2022-09-17T03:55:59.763Z,12.90
2022-09-17T03:58:27.160Z,12.90
2022-09-17T04:00:54.720Z,12.80
2022-09-17T04:03:21.548Z,12.80
2022-09-17T04:05:48.111Z,12.80
2022-09-17T04:08:14.751Z,12.80
2022-09-17T04:10:41.403Z,12.80
2022-09-17T04:13:08.996Z,12.80
2022-09-17T04:15:35.579Z,12.90
2022-09-17T04:18:02.129Z,12.80
2022-09-17T04:20:28.674Z,12.80
2022-09-17T04:22:55.367Z,12.80
2022-09-17T04:25:21.973Z,12.80
2022-09-17T04:27:48.676Z,12.80
2022-09-17T04:30:15.519Z,12.80
2022-09-17T04:32:43.155Z,12.80
2022-09-17T04:35:09.766Z,12.90
2022-09-17T04:37:36.690Z,12.90
2022-09-17T04:40:07.729Z,12.90
2022-09-17T04:42:34.750Z,12.90
2022-09-17T04:45:01.262Z,12.90
2022-09-17T04:47:27.822Z,12.90
2022-09-17T04:49:54.380Z,12.80
2022-09-17T04:52:20.922Z,12.80
2022-09-17T04:54:47.478Z,12.80
2022-09-17T04:57:14.031Z,12.80
2022-09-17T04:59:40.563Z,12.80
2022-09-17T05:02:07.127Z,12.80
2022-09-17T05:04:34.372Z,12.80
2022-09-17T05:07:01.032Z,12.80
2022-09-17T05:09:27.587Z,12.80
2022-09-17T05:11:54.190Z,12.70
2022-09-17T05:14:20.750Z,12.70
2022-09-17T05:16:47.283Z,12.70
2022-09-17T05:19:13.851Z,12.60
2022-09-17T05:21:40.488Z,12.60
2022-09-17T05:24:07.220Z,12.60
2022-09-17T05:26:33.798Z,12.60
2022-09-17T05:29:00.570Z,12.60
2022-09-17T05:31:27.278Z,12.60
2022-09-17T05:33:53.886Z,12.60
2022-09-17T05:36:20.511Z,12.60
2022-09-17T05:38:47.150Z,12.60
2022-09-17T05:41:13.786Z,12.70
2022-09-17T05:43:40.343Z,12.70
2022-09-17T05:46:06.997Z,12.70
2022-09-17T05:48:33.748Z,12.70
2022-09-17T05:51:00.434Z,12.60
2022-09-17T05:53:26.982Z,12.70
2022-09-17T05:55:59.608Z,12.70
2022-09-17T05:58:27.003Z,12.70
2022-09-17T06:00:53.970Z,12.60
2022-09-17T06:03:22.709Z,12.70
2022-09-17T06:05:53.828Z,12.60
2022-09-17T06:08:20.459Z,12.60
2022-09-17T06:10:47.031Z,12.60
2022-09-17T06:13:13.611Z,12.70
2022-09-17T06:15:40.223Z,12.70
2022-09-17T06:18:06.853Z,12.70
2022-09-17T06:20:33.451Z,12.70
2022-09-17T06:23:00.038Z,12.80
2022-09-17T06:25:26.650Z,12.80
2022-09-17T06:27:53.268Z,12.90
2022-09-17T06:30:19.902Z,12.90
2022-09-17T06:32:46.490Z,13.00
2022-09-17T06:35:13.095Z,13.10
2022-09-17T06:37:40.726Z,13.20
2022-09-17T06:40:08.040Z,13.20
2022-09-17T06:42:34.775Z,13.30
2022-09-17T06:45:07.140Z,13.30
2022-09-17T06:47:35.239Z,13.30
2022-09-17T06:50:01.966Z,13.30
2022-09-17T06:52:28.723Z,13.40
2022-09-17T06:54:55.502Z,13.50
2022-09-17T06:57:22.107Z,13.50
2022-09-17T06:59:49.935Z,13.60
2022-09-17T07:02:16.505Z,13.60
2022-09-17T07:04:43.108Z,13.60
2022-09-17T07:07:10.395Z,13.70
2022-09-17T07:09:36.941Z,13.80
2022-09-17T07:12:06.823Z,13.90
2022-09-17T07:14:33.459Z,13.90
2022-09-17T07:17:00.008Z,13.90
2022-09-17T07:19:26.538Z,13.90
2022-09-17T07:21:53.082Z,14.00
2022-09-17T07:24:19.647Z,14.00
2022-09-17T07:26:46.181Z,14.00
2022-09-17T07:29:12.995Z,14.00
2022-09-17T07:31:39.556Z,14.00
2022-09-17T07:34:06.216Z,14.00
2022-09-17T07:36:32.819Z,14.00
2022-09-17T07:38:59.420Z,14.00
2022-09-17T07:41:25.961Z,14.10
2022-09-17T07:43:53.653Z,14.10
2022-09-17T07:46:20.928Z,14.10
2022-09-17T07:48:48.530Z,14.20
2022-09-17T07:51:22.785Z,14.20
2022-09-17T07:53:52.865Z,14.30
2022-09-17T07:56:19.465Z,14.20
2022-09-17T07:58:46.024Z,14.30
2022-09-17T08:01:13.468Z,14.30
2022-09-17T08:42:56.511Z,14.60
2022-09-17T08:45:23.450Z,14.70
2022-09-17T08:47:50.118Z,14.70
2022-09-17T08:50:20.461Z,14.80
2022-09-17T08:53:02.719Z,14.80
2022-09-17T08:55:46.131Z,14.90
2022-09-17T08:58:27.987Z,14.90
2022-09-17T09:01:06.784Z,14.90
2022-09-17T09:03:46.641Z,15.00
2022-09-17T09:06:15.138Z,15.00
2022-09-17T09:08:48.634Z,15.00
2022-09-17T09:11:17.299Z,15.10
2022-09-17T09:13:48.999Z,15.20
2022-09-17T09:16:20.836Z,15.30
2022-09-17T09:18:48.587Z,15.30
2022-09-17T09:21:28.803Z,15.50
2022-09-17T09:24:06.504Z,15.60
2022-09-17T09:26:47.810Z,15.60
2022-09-17T09:29:37.381Z,15.70
2022-09-17T09:32:15.885Z,15.80
2022-09-17T09:34:43.732Z,15.70
2022-09-17T09:37:13.915Z,15.70
2022-09-17T09:39:45.723Z,15.70
2022-09-17T09:42:18.595Z,15.70
2022-09-17T09:44:45.411Z,15.70
2022-09-17T09:47:18.659Z,15.70
2022-09-17T09:49:51.239Z,15.60
2022-09-17T09:52:23.912Z,15.60
2022-09-17T09:55:02.661Z,15.70
2022-09-17T09:57:41.587Z,15.70
2022-09-17T10:00:27.893Z,15.70
2022-09-17T10:02:57.212Z,15.70
2022-09-17T10:05:23.913Z,15.60
2022-09-17T10:07:50.643Z,15.40
2022-09-17T10:10:17.203Z,15.30
2022-09-17T10:12:43.751Z,15.20
2022-09-17T10:15:24.167Z,15.10
2022-09-17T10:18:10.587Z,15.10
2022-09-17T10:20:48.419Z,15.10
2022-09-17T10:23:15.119Z,15.10
2022-09-17T10:25:45.082Z,15.10
2022-09-17T10:28:30.578Z,15.10
2022-09-17T10:31:08.617Z,15.20
2022-09-17T10:33:38.130Z,15.40
2022-09-17T10:36:09.999Z,15.60
2022-09-17T10:38:38.280Z,15.70
2022-09-17T10:41:09.288Z,15.90
2022-09-17T10:43:35.847Z,15.90
2022-09-17T10:46:03.364Z,16.10
2022-09-17T10:48:34.081Z,16.20
2022-09-17T10:51:03.589Z,16.30
2022-09-17T10:53:30.482Z,16.40
2022-09-17T10:55:57.114Z,16.40
2022-09-17T10:58:23.634Z,16.40
2022-09-17T11:00:50.194Z,16.30
2022-09-17T11:03:22.881Z,16.40
2022-09-17T11:05:55.547Z,16.30
2022-09-17T11:08:31.334Z,16.30
2022-09-17T11:11:18.157Z,16.40
2022-09-17T11:13:47.722Z,16.40
2022-09-17T11:16:32.148Z,16.40
2022-09-17T11:18:58.675Z,16.50
2022-09-17T11:21:32.250Z,16.60
2022-09-17T11:24:17.127Z,16.60
2022-09-17T11:26:44.843Z,16.70
2022-09-17T11:29:14.395Z,16.90
2022-09-17T11:31:47.129Z,17.00
2022-09-17T11:34:33.955Z,17.10
2022-09-17T11:37:11.252Z,17.20
2022-09-17T11:39:41.333Z,17.30
2022-09-17T11:42:10.449Z,17.40
2022-09-17T11:44:41.337Z,17.50
2022-09-17T11:47:25.950Z,17.50
2022-09-17T11:49:55.965Z,17.50
2022-09-17T11:52:32.792Z,17.50
2022-09-17T11:55:25.902Z,17.50
2022-09-17T11:57:57.755Z,17.50
2022-09-17T12:00:24.325Z,17.70
2022-09-17T12:02:57.635Z,17.70
2022-09-17T12:05:42.487Z,17.70
2022-09-17T12:08:19.430Z,17.70
2022-09-17T12:10:49.566Z,17.60
2022-09-17T12:13:19.843Z,17.30
2022-09-17T12:15:53.089Z,17.20
2022-09-17T12:18:33.767Z,17.30
2022-09-17T12:21:01.961Z,17.50
2022-09-17T12:23:34.802Z,17.70
2022-09-17T12:26:13.610Z,17.80
2022-09-17T12:28:49.021Z,18.00
2022-09-17T12:31:23.982Z,18.10
2022-09-17T12:33:55.463Z,18.30
2022-09-17T12:36:42.660Z,18.30
2022-09-17T12:39:28.515Z,18.20
2022-09-17T12:42:17.860Z,18.00
2022-09-17T12:45:00.134Z,18.00
2022-09-17T12:47:42.242Z,18.10
2022-09-17T12:50:27.658Z,18.50
2022-09-17T12:52:54.208Z,19.10
2022-09-17T12:55:42.619Z,19.50
2022-09-17T12:58:12.137Z,19.60
2022-09-17T13:00:48.274Z,19.70
2022-09-17T13:03:14.820Z,20.10
2022-09-17T13:06:00.196Z,20.60
2022-09-17T13:08:45.603Z,20.70
2022-09-17T13:11:12.458Z,21.00
2022-09-17T13:13:57.901Z,21.30
2022-09-17T13:16:33.773Z,21.90
2022-09-17T13:19:16.240Z,22.70
2022-09-17T13:21:55.480Z,23.50
2022-09-17T13:24:25.032Z,23.90
2022-09-17T13:26:54.803Z,23.90
2022-09-17T13:29:40.097Z,23.50
2022-09-17T13:32:06.656Z,23.70
2022-09-17T13:34:35.936Z,24.20
2022-09-17T13:37:05.777Z,24.30
2022-09-17T13:39:40.440Z,25.20
2022-09-17T13:42:08.043Z,26.30
2022-09-17T13:44:45.871Z,27.20
2022-09-17T13:47:21.182Z,27.60
2022-09-17T13:49:50.347Z,27.90
2022-09-17T13:52:33.864Z,27.60
2022-09-17T13:55:01.262Z,26.60
2022-09-17T13:57:28.448Z,26.20
2022-09-17T13:59:56.558Z,25.70
2022-09-17T14:02:30.806Z,26.00
2022-09-17T14:05:29.927Z,26.70
2022-09-17T14:08:27.727Z,27.60
2022-09-17T14:10:54.815Z,28.70
2022-09-17T14:13:26.056Z,29.80
2022-09-17T14:15:57.030Z,30.30
2022-09-17T14:18:26.595Z,29.50
2022-09-17T14:20:55.214Z,28.40
2022-09-17T14:23:21.747Z,28.50
2022-09-17T14:25:52.197Z,28.90
2022-09-17T14:28:30.658Z,29.50
2022-09-17T14:30:57.280Z,30.20
2022-09-17T14:33:27.083Z,30.70
2022-09-17T14:36:00.117Z,31.20
2022-09-17T14:38:44.765Z,31.70
2022-09-17T14:41:11.471Z,32.00
2022-09-17T14:43:41.255Z,32.30
2022-09-17T14:46:09.865Z,32.50
2022-09-17T14:48:39.265Z,31.90
2022-09-17T14:51:32.324Z,31.70
2022-09-17T14:54:10.203Z,31.50
2022-09-17T14:56:42.540Z,31.70
2022-09-17T14:59:14.764Z,31.80
2022-09-17T15:01:46.984Z,31.70
2022-09-17T15:04:13.586Z,31.90
2022-09-17T15:06:46.503Z,30.80
2022-09-17T15:09:16.999Z,29.90
2022-09-17T15:11:44.540Z,30.20
2022-09-17T15:14:16.259Z,30.50
2022-09-17T15:16:48.026Z,30.90
2022-09-17T15:19:17.173Z,31.40
2022-09-17T15:21:44.803Z,31.70
2022-09-17T15:24:14.498Z,32.00
2022-09-17T15:26:42.673Z,31.90
2022-09-17T15:29:13.316Z,30.90
2022-09-17T15:31:41.071Z,30.40
2022-09-17T15:34:10.943Z,29.20
2022-09-17T15:36:37.818Z,28.00
2022-09-17T15:39:24.394Z,26.80
2022-09-17T15:41:57.619Z,25.70
2022-09-17T15:44:30.896Z,24.90
2022-09-17T15:47:17.283Z,25.00
2022-09-17T15:50:03.580Z,25.70
2022-09-17T15:52:33.672Z,26.20
2022-09-17T15:55:00.551Z,27.00
2022-09-17T15:57:29.106Z,27.60
2022-09-17T15:59:56.195Z,28.00
2022-09-17T16:02:27.723Z,28.50
2022-09-17T16:05:13.798Z,28.80
2022-09-17T16:07:40.631Z,28.50
2022-09-17T16:10:08.758Z,27.40
2022-09-17T16:12:36.093Z,26.50
2022-09-17T16:15:03.122Z,25.50
2022-09-17T16:17:32.831Z,24.70
2022-09-17T16:20:05.889Z,23.90
2022-09-17T16:22:33.301Z,23.20
2022-09-17T16:24:59.856Z,22.80
2022-09-17T16:27:29.930Z,22.50
2022-09-17T16:30:01.554Z,22.10
2022-09-17T16:32:28.380Z,21.70
2022-09-17T16:34:56.449Z,21.30
2022-09-17T16:37:22.995Z,21.00
2022-09-17T16:39:50.762Z,20.70
2022-09-17T16:42:17.399Z,20.30
2022-09-17T16:44:43.923Z,20.00
2022-09-17T16:47:10.563Z,19.80
2022-09-17T16:49:37.118Z,19.60
2022-09-17T16:52:03.726Z,19.40
2022-09-17T16:54:30.271Z,19.30
2022-09-17T16:56:56.847Z,19.20
2022-09-17T16:59:23.408Z,19.00
2022-09-17T17:01:50.100Z,18.90
2022-09-17T17:04:17.543Z,18.60
2022-09-17T17:06:44.080Z,18.40
2022-09-17T17:09:12.338Z,18.20
2022-09-17T17:11:39.366Z,18.00
2022-09-17T17:14:06.201Z,17.80
2022-09-17T17:16:32.833Z,17.70
2022-09-17T17:18:59.426Z,17.60
2022-09-17T17:21:26.026Z,17.70
2022-09-17T17:23:53.302Z,17.60
2022-09-17T17:26:19.863Z,17.60
2022-09-17T17:28:47.467Z,17.60
2022-09-17T17:31:14.076Z,17.50
2022-09-17T17:33:40.659Z,17.40
2022-09-17T17:36:08.623Z,17.40
2022-09-17T17:38:35.709Z,17.30
2022-09-17T17:41:03.703Z,17.30
2022-09-17T17:43:30.376Z,17.20
2022-09-17T17:45:56.918Z,17.10
2022-09-17T17:48:23.622Z,17.00
2022-09-17T17:50:53.444Z,16.90
2022-09-17T17:53:23.442Z,16.80
2022-09-17T17:56:00.405Z,16.80
2022-09-17T17:58:26.967Z,16.70
2022-09-17T18:00:53.780Z,16.70
2022-09-17T18:03:24.751Z,16.60
2022-09-17T18:05:52.456Z,16.60
2022-09-17T18:08:19.602Z,16.50
2022-09-17T18:10:53.713Z,16.50
2022-09-17T18:13:20.649Z,16.50
2022-09-17T18:15:54.241Z,16.40
2022-09-17T18:18:21.484Z,16.40
2022-09-17T18:20:48.387Z,16.40
2022-09-17T18:23:15.230Z,16.40
2022-09-17T18:25:41.791Z,16.30
2022-09-17T18:28:08.438Z,16.20
2022-09-17T18:30:36.044Z,16.20
2022-09-17T18:33:02.758Z,16.10
2022-09-17T18:35:29.509Z,16.10
2022-09-17T18:37:56.345Z,16.00
2022-09-17T18:40:22.932Z,15.90
2022-09-17T18:42:49.678Z,15.80
2022-09-17T18:45:16.309Z,15.70
2022-09-17T18:47:43.491Z,15.60
2022-09-17T18:50:10.048Z,15.60
2022-09-17T18:52:36.707Z,15.60
2022-09-17T18:55:03.450Z,15.60
2022-09-17T18:57:29.994Z,15.60
2022-09-17T18:59:58.309Z,15.60
2022-09-17T19:02:25.045Z,15.50
2022-09-17T19:04:51.766Z,15.50
2022-09-17T19:07:19.781Z,15.40
2022-09-17T19:09:46.439Z,15.30
2022-09-17T19:12:13.176Z,15.20
2022-09-17T19:14:39.793Z,15.20
2022-09-17T19:17:06.326Z,15.10
2022-09-17T19:19:32.915Z,15.20
2022-09-17T19:21:59.459Z,15.00
2022-09-17T19:24:25.989Z,15.10
2022-09-17T19:26:53.405Z,15.00
2022-09-17T19:29:19.958Z,15.00
2022-09-17T19:31:46.775Z,14.90
2022-09-17T19:34:13.366Z,14.90
2022-09-17T19:36:39.938Z,14.80
2022-09-17T19:39:06.511Z,14.80
2022-09-17T19:41:35.953Z,14.70
2022-09-17T19:44:03.540Z,14.70
2022-09-17T19:46:31.506Z,14.50
2022-09-17T19:48:58.658Z,14.30
2022-09-17T19:51:26.203Z,14.30
2022-09-17T19:53:53.005Z,14.20
2022-09-17T19:56:21.421Z,14.20
2022-09-17T19:58:48.411Z,14.30
2022-09-17T20:01:15.214Z,14.30
2022-09-17T20:03:42.738Z,14.30
2022-09-17T20:06:10.896Z,14.30
2022-09-17T20:08:46.623Z,14.40
2022-09-17T20:11:14.491Z,14.40
2022-09-17T20:13:41.180Z,14.40
2022-09-17T20:16:12.436Z,14.50
2022-09-17T20:18:39.403Z,14.40
2022-09-17T20:21:08.931Z,14.40
2022-09-17T20:23:35.499Z,14.40
2022-09-17T20:26:02.450Z,14.30
2022-09-17T20:28:29.146Z,14.30
2022-09-17T20:31:25.183Z,14.30
2022-09-17T20:33:55.834Z,14.30
2022-09-17T20:36:23.587Z,14.30
2022-09-17T20:39:22.494Z,14.30
2022-09-17T20:41:37.811Z,14.30
2022-09-17T20:44:06.043Z,14.40
2022-09-17T20:46:32.692Z,14.30
2022-09-17T20:48:59.525Z,14.30
2022-09-17T20:51:27.312Z,14.30
2022-09-17T20:53:54.114Z,14.20
2022-09-17T20:56:24.766Z,14.20
2022-09-17T20:59:03.958Z,14.10
2022-09-17T21:01:34.139Z,14.10
2022-09-17T21:04:01.372Z,14.10
2022-09-17T21:06:29.512Z,14.10
2022-09-17T21:08:56.410Z,14.10
2022-09-17T21:11:23.947Z,14.20
2022-09-17T21:13:50.861Z,14.20
2022-09-17T21:16:17.897Z,14.20
2022-09-17T21:18:44.649Z,14.30
2022-09-17T21:21:11.783Z,14.30
2022-09-17T21:23:39.233Z,14.40
2022-09-17T21:26:07.271Z,14.30
2022-09-17T21:28:35.441Z,14.30
2022-09-17T21:31:14.275Z,14.30
2022-09-17T21:33:41.725Z,14.30
2022-09-17T21:36:12.383Z,14.20
2022-09-17T21:38:39.154Z,14.20
2022-09-17T21:41:07.913Z,14.10
2022-09-17T21:43:35.423Z,13.90
2022-09-17T21:46:12.577Z,13.80
2022-09-17T21:48:45.114Z,13.70
2022-09-17T21:51:19.295Z,13.80
2022-09-17T21:53:46.179Z,13.80
2022-09-17T21:56:13.711Z,13.90
2022-09-17T21:58:40.710Z,13.90
2022-09-17T22:01:17.356Z,13.90
2022-09-17T22:03:44.343Z,14.00
2022-09-17T22:06:14.203Z,14.10
2022-09-17T22:08:41.030Z,14.00
2022-09-17T22:11:10.091Z,14.10
2022-09-17T22:13:36.872Z,14.10
2022-09-17T22:16:04.855Z,14.10
2022-09-17T22:18:32.396Z,14.10
2022-09-17T22:20:59.130Z,14.20
2022-09-17T22:23:26.541Z,14.20
2022-09-17T22:26:03.423Z,14.10
2022-09-17T22:28:30.357Z,14.00
2022-09-17T22:30:57.053Z,13.90
2022-09-17T22:33:23.640Z,14.00
2022-09-17T22:35:50.180Z,14.00
2022-09-17T22:38:16.755Z,14.00
2022-09-17T22:40:43.340Z,13.90
2022-09-17T22:43:09.902Z,13.90
2022-09-17T22:45:36.544Z,13.90
2022-09-17T22:48:04.062Z,13.90
2022-09-17T22:50:30.648Z,13.90
2022-09-17T22:52:57.219Z,14.00
2022-09-17T22:55:23.779Z,14.00
2022-09-17T22:57:50.355Z,14.00
2022-09-17T23:00:17.555Z,14.00
2022-09-17T23:02:44.800Z,14.10
2022-09-17T23:05:11.577Z,14.00
2022-09-17T23:07:38.183Z,14.10
2022-09-17T23:10:04.902Z,14.00
2022-09-17T23:12:31.535Z,14.00
2022-09-17T23:14:58.120Z,14.10
2022-09-17T23:17:29.194Z,14.10
2022-09-17T23:19:56.078Z,14.10
2022-09-17T23:22:23.118Z,14.00
2022-09-17T23:24:49.979Z,14.10
2022-09-17T23:27:16.553Z,14.10
2022-09-17T23:29:43.110Z,14.10
2022-09-17T23:32:09.684Z,14.10
2022-09-17T23:34:37.615Z,14.10
2022-09-17T23:37:04.195Z,14.10
2022-09-17T23:39:30.874Z,14.10
2022-09-17T23:41:57.482Z,14.10
2022-09-17T23:44:24.047Z,14.00
2022-09-17T23:46:50.662Z,14.00
2022-09-17T23:49:17.327Z,14.00
2022-09-17T23:51:43.903Z,14.00
2022-09-17T23:54:10.555Z,14.00
2022-09-17T23:56:37.291Z,14.00
2022-09-17T23:59:04.660Z,14.00
